Panda — PBCS — position and weather

sailwx.info

Track history (hours):
 
Tides and Currents Weather Stations Pressure Air Temp Water Temp Dewpoint Dewpoint Depression Visibility Wind Speed Wind Dir Waves Ship Positions

Panda

Last reported at 2016-Sep-28 08:19 UTC. Time now 2016-Sep-29 18:45 UTC.
Position N 52°34' E 001°45'.

Length 89 m; draft 4.5 m.

Type: Cargo ship. MMSI: 245014000.

Date/timePositionNaut miles runAvg speedWind from/ knotsBaromVisibWave heightAir tempDewpointWater temp
2016-Sep-28 08:19N 52°34' E 001°45'29 6.1
2016-Sep-28 03:33N 52°42' E 002°30'8 7.3
2016-Sep-28 02:30N 52°45' E 002°42'7 7.0
2016-Sep-28 01:33N 52°48' E 002°52'85 7.1
2016-Sep-27 13:27N 53°32' E 004°55'25 8.5
2016-Sep-27 10:33N 53°40' E 005°34'90 9.0
2016-Sep-27 00:33N 54°01' E 008°02'37 9.4
2016-Sep-26 20:33N 53°52' E 009°04'7 7.2
2016-Sep-26 19:34N 53°52' E 009°16'33 8.3
2016-Sep-26 15:33N 53°30' E 009°58'0 0.0
2016-Sep-26 13:33N 53°30' E 009°58'0 0.0
2016-Sep-26 11:33N 53°30' E 009°58'0 0.0
2016-Sep-26 08:33N 53°30' E 009°58'0 0.0
2016-Sep-26 02:33N 53°30' E 009°58'0 0.0
2016-Sep-26 01:33N 53°30' E 009°58'0 0.0
2016-Sep-26 00:33N 53°30' E 009°58'0 0.0
2016-Sep-25 21:33N 53°30' E 009°58'0 0.0
2016-Sep-25 17:30N 53°30' E 009°58'0 0.0
2016-Sep-25 16:33N 53°30' E 009°58'0 0.0
2016-Sep-25 15:33N 53°30' E 009°58'0 0.0
2016-Sep-25 14:33N 53°30' E 009°58'0 0.0
2016-Sep-25 12:33N 53°30' E 009°58'0 0.0
2016-Sep-25 11:33N 53°30' E 009°58'0 0.0
2016-Sep-25 10:33N 53°30' E 009°58'0 0.0
2016-Sep-25 09:33N 53°30' E 009°58'0 0.0
2016-Sep-25 07:32N 53°30' E 009°58'0 0.0
2016-Sep-25 04:32N 53°30' E 009°58'0 0.0
2016-Sep-25 00:33N 53°30' E 009°58'0 0.0
2016-Sep-24 22:32N 53°30' E 009°58'0 0.0
2016-Sep-24 21:32N 53°30' E 009°58'0 0.0
2016-Sep-24 19:32N 53°30' E 009°58'0 0.0
2016-Sep-24 18:32N 53°30' E 009°58'0 0.0
2016-Sep-24 17:32N 53°30' E 009°58'0 0.0
2016-Sep-24 16:32N 53°30' E 009°58'0 0.0
2016-Sep-24 14:32N 53°30' E 009°58'0 0.0
2016-Sep-24 12:33N 53°30' E 009°58'15 7.5
2016-Sep-24 10:33N 53°36' E 009°35'9 9.1
2016-Sep-24 09:34N 53°44' E 009°26'58 9.6
2016-Sep-24 03:33N 54°03' E 007°54'1110.8
2016-Sep-24 02:34N 54°09' E 007°38'1110.9
2016-Sep-24 01:33N 54°14' E 007°22'1111.1
2016-Sep-24 00:33N 54°17' E 007°03'36610.1
2016-Sep-22 12:31N 55°59' W 003°11'1 0.1
2016-Sep-22 04:33N 55°59' W 003°10'0 0.0
2016-Sep-22 03:33N 55°59' W 003°10'0 0.0
2016-Sep-22 00:33N 55°59' W 003°10'0 0.0
2016-Sep-21 23:33N 55°59' W 003°10'0 0.0
2016-Sep-21 22:33N 55°59' W 003°10'0 0.0
2016-Sep-21 19:33N 55°59' W 003°10'0 0.0
2016-Sep-21 16:33N 55°59' W 003°10'0 0.0
2016-Sep-21 09:32N 55°59' W 003°10'0 0.0
2016-Sep-21 08:32N 55°59' W 003°10'0 0.0
2016-Sep-21 05:32N 55°59' W 003°10'0 0.0
2016-Sep-21 03:32N 55°59' W 003°10'0 0.0
2016-Sep-21 02:32N 55°59' W 003°10'0 0.0
2016-Sep-20 17:32N 55°59' W 003°10'0 0.0
2016-Sep-20 14:32N 55°59' W 003°10'0 0.0
2016-Sep-20 13:32N 55°59' W 003°10'0 0.0
2016-Sep-20 10:32N 55°59' W 003°10'0 0.0
2016-Sep-20 08:32N 55°59' W 003°10'0 0.0
2016-Sep-20 07:32N 55°59' W 003°10'0 0.0
2016-Sep-20 06:32N 55°59' W 003°10'0 0.0
2016-Sep-20 02:31N 55°59' W 003°10'0 0.0
2016-Sep-19 23:31N 55°59' W 003°10'0 0.0
2016-Sep-19 19:31N 55°59' W 003°10'0 0.0
2016-Sep-19 18:31N 55°59' W 003°10'0 0.0
2016-Sep-19 16:28N 55°59' W 003°10'0 0.0
2016-Sep-19 14:31N 55°59' W 003°10'0 0.0
2016-Sep-19 13:31N 55°59' W 003°10'0 0.0
2016-Sep-19 12:31N 55°59' W 003°10'0 0.0
2016-Sep-19 11:31N 55°59' W 003°10'0 0.0
2016-Sep-19 09:31N 55°59' W 003°10'0 0.0
2016-Sep-19 07:31N 55°59' W 003°10'0 0.0
2016-Sep-19 06:31N 55°59' W 003°10'0 0.0
2016-Sep-19 03:31N 55°59' W 003°10'0 0.0
2016-Sep-19 02:31N 55°59' W 003°10'0 0.0
2016-Sep-19 00:31N 55°59' W 003°10'0 0.0
2016-Sep-18 19:31N 55°59' W 003°10'0 0.0
2016-Sep-18 15:33N 55°59' W 003°10'0 0.0
2016-Sep-18 14:33N 55°59' W 003°10'0 0.0
2016-Sep-18 10:33N 55°59' W 003°10'0 0.0
2016-Sep-18 09:33N 55°59' W 003°10'  
Track history (hours):
 
Tides and Currents Weather Stations Pressure Air Temp Water Temp Dewpoint Dewpoint Depression Visibility Wind Speed Wind Dir Waves Ship Positions

Panda

Last reported at 2016-Sep-28 08:19 UTC. Time now 2016-Sep-29 18:45 UTC.
Position N 52°34' E 001°45'.

Length 89 m; draft 4.5 m.

Type: Cargo ship. MMSI: 245014000.

Date/timePositionNaut miles runAvg speedWind from/ knotsBaromVisibWave heightAir tempDewpointWater temp
2016-Sep-28 08:19N 52°34' E 001°45'29 6.1
2016-Sep-28 03:33N 52°42' E 002°30'8 7.3
2016-Sep-28 02:30N 52°45' E 002°42'7 7.0
2016-Sep-28 01:33N 52°48' E 002°52'85 7.1
2016-Sep-27 13:27N 53°32' E 004°55'25 8.5
2016-Sep-27 10:33N 53°40' E 005°34'90 9.0
2016-Sep-27 00:33N 54°01' E 008°02'37 9.4
2016-Sep-26 20:33N 53°52' E 009°04'7 7.2
2016-Sep-26 19:34N 53°52' E 009°16'33 8.3
2016-Sep-26 15:33N 53°30' E 009°58'0 0.0
2016-Sep-26 13:33N 53°30' E 009°58'0 0.0
2016-Sep-26 11:33N 53°30' E 009°58'0 0.0
2016-Sep-26 08:33N 53°30' E 009°58'0 0.0
2016-Sep-26 02:33N 53°30' E 009°58'0 0.0
2016-Sep-26 01:33N 53°30' E 009°58'0 0.0
2016-Sep-26 00:33N 53°30' E 009°58'0 0.0
2016-Sep-25 21:33N 53°30' E 009°58'0 0.0
2016-Sep-25 17:30N 53°30' E 009°58'0 0.0
2016-Sep-25 16:33N 53°30' E 009°58'0 0.0
2016-Sep-25 15:33N 53°30' E 009°58'0 0.0
2016-Sep-25 14:33N 53°30' E 009°58'0 0.0
2016-Sep-25 12:33N 53°30' E 009°58'0 0.0
2016-Sep-25 11:33N 53°30' E 009°58'0 0.0
2016-Sep-25 10:33N 53°30' E 009°58'0 0.0
2016-Sep-25 09:33N 53°30' E 009°58'0 0.0
2016-Sep-25 07:32N 53°30' E 009°58'0 0.0
2016-Sep-25 04:32N 53°30' E 009°58'0 0.0
2016-Sep-25 00:33N 53°30' E 009°58'0 0.0
2016-Sep-24 22:32N 53°30' E 009°58'0 0.0
2016-Sep-24 21:32N 53°30' E 009°58'0 0.0
2016-Sep-24 19:32N 53°30' E 009°58'0 0.0
2016-Sep-24 18:32N 53°30' E 009°58'0 0.0
2016-Sep-24 17:32N 53°30' E 009°58'0 0.0
2016-Sep-24 16:32N 53°30' E 009°58'0 0.0
2016-Sep-24 14:32N 53°30' E 009°58'0 0.0
2016-Sep-24 12:33N 53°30' E 009°58'15 7.5
2016-Sep-24 10:33N 53°36' E 009°35'9 9.1
2016-Sep-24 09:34N 53°44' E 009°26'58 9.6
2016-Sep-24 03:33N 54°03' E 007°54'1110.8
2016-Sep-24 02:34N 54°09' E 007°38'1110.9
2016-Sep-24 01:33N 54°14' E 007°22'1111.1
2016-Sep-24 00:33N 54°17' E 007°03'36610.1
2016-Sep-22 12:31N 55°59' W 003°11'1 0.1
2016-Sep-22 04:33N 55°59' W 003°10'0 0.0
2016-Sep-22 03:33N 55°59' W 003°10'0 0.0
2016-Sep-22 00:33N 55°59' W 003°10'0 0.0
2016-Sep-21 23:33N 55°59' W 003°10'0 0.0
2016-Sep-21 22:33N 55°59' W 003°10'0 0.0
2016-Sep-21 19:33N 55°59' W 003°10'0 0.0
2016-Sep-21 16:33N 55°59' W 003°10'0 0.0
2016-Sep-21 09:32N 55°59' W 003°10'0 0.0
2016-Sep-21 08:32N 55°59' W 003°10'0 0.0
2016-Sep-21 05:32N 55°59' W 003°10'0 0.0
2016-Sep-21 03:32N 55°59' W 003°10'0 0.0
2016-Sep-21 02:32N 55°59' W 003°10'0 0.0
2016-Sep-20 17:32N 55°59' W 003°10'0 0.0
2016-Sep-20 14:32N 55°59' W 003°10'0 0.0
2016-Sep-20 13:32N 55°59' W 003°10'0 0.0
2016-Sep-20 10:32N 55°59' W 003°10'0 0.0
2016-Sep-20 08:32N 55°59' W 003°10'0 0.0
2016-Sep-20 07:32N 55°59' W 003°10'0 0.0
2016-Sep-20 06:32N 55°59' W 003°10'0 0.0
2016-Sep-20 02:31N 55°59' W 003°10'0 0.0
2016-Sep-19 23:31N 55°59' W 003°10'0 0.0
2016-Sep-19 19:31N 55°59' W 003°10'0 0.0
2016-Sep-19 18:31N 55°59' W 003°10'0 0.0
2016-Sep-19 16:28N 55°59' W 003°10'0 0.0
2016-Sep-19 14:31N 55°59' W 003°10'0 0.0
2016-Sep-19 13:31N 55°59' W 003°10'0 0.0
2016-Sep-19 12:31N 55°59' W 003°10'0 0.0
2016-Sep-19 11:31N 55°59' W 003°10'0 0.0
2016-Sep-19 09:31N 55°59' W 003°10'0 0.0
2016-Sep-19 07:31N 55°59' W 003°10'0 0.0
2016-Sep-19 06:31N 55°59' W 003°10'0 0.0
2016-Sep-19 03:31N 55°59' W 003°10'0 0.0
2016-Sep-19 02:31N 55°59' W 003°10'0 0.0
2016-Sep-19 00:31N 55°59' W 003°10'0 0.0
2016-Sep-18 19:31N 55°59' W 003°10'0 0.0
2016-Sep-18 15:33N 55°59' W 003°10'0 0.0
2016-Sep-18 14:33N 55°59' W 003°10'0 0.0
2016-Sep-18 10:33N 55°59' W 003°10'0 0.0
2016-Sep-18 09:33N 55°59' W 003°10'  

Dump ship's entire track history